Airfield :
LOGIN :

Register | Disclaimer

   EN    FR    IT 

 










Legend :    VFR   Marginal VFR   IFR   Intensive IFR   Very Intensive IFR
Visi :
Ceiling :
>= 8 km
>= 3000ft
5 to 8 km
1000 to 3000 ft
1500m to 5 km
500 to 1000 ft
800 to 1500m
200 to 500 ft
< 800m
< 200 ft
Symbols :   Thunderstorms  Fog  Heavy snow  Heavy precipitations  Wind > 20 kt
SIGMETs :     Misc.  Thunderstorms  Icing  Turbulence  Mountain Waves  Volcanic Ashes






- Airport Elevation : 1260 ft
- IATA code : LDE


LFBT - Tarbes / Ossun

CURRENT METAR :
  • 121400Z AUTO 35006KT 310V040 9999 ///TCU 30/18 Q1012 TEMPO VRB15G30KT 4000 TSRA BKN014 BKN060CB

EXPIRED METARs :
  • 121330Z AUTO 36007KT 320V060 CAVOK 29/17 Q1013 TEMPO VRB15G30KT 4000 TSRA BKN014 BKN060CB
  • 121300Z AUTO 36007KT 330V030 CAVOK 28/19 Q1013 TEMPO VRB15G30KT 4000 TSRA BKN014 BKN060CB
  • 121230Z AUTO 35008KT 9999 FEW041 SCT130 BKN220 27/18 Q1013 TEMPO VRB15G30KT 4000 TSRA BKN014 BKN060CB
  • 121200Z AUTO 01004KT 9999 FEW036/// BKN130/// OVC150/// ///TCU 26/18 Q1013 TEMPO VRB15G30KT 4000 TSRA BKN014 BKN060CB
  • 121130Z AUTO 11003KT 060V150 CAVOK 26/19 Q1013 TEMPO 4000 SHRA FEW060CB BKN070TCU

TAF TAF LFBT
Valid from the 12 at 12:00 until the 13 at 12:00 UTC


121100Z 1212/1312 VRB02KT CAVOK
TEMPO 1212/1224 VRB15G30KT 4000 TSRA BKN014 BKN060CB
PROB40
TEMPO 1218/1220 VRB20G40KT 1500 TSGR BKN009 BKN050CB



MET'MAP, your aeronautical weather chart ! - Copyright ORBIFLY December 2007 - Disclaimer

ORBIFLY MET'MAP TEAM :

Programming & Development : Alexandra Zaïnal
Concept & original design : Baudouin d'Aumeries
Assistance for programming : Marc-Olivier Méhu
Technical & hardware support : Manuel Goepfert

Contact : metmap@orbifly.com




SOURCES & CREDITS :

   NOAA